createdAt,value
2022-12-04T00:01:25.959Z,-0.80
2022-12-04T00:03:59.141Z,-0.70
2022-12-04T00:06:27.968Z,-0.70
2022-12-04T00:08:56.828Z,-0.80
2022-12-04T00:11:25.828Z,-0.60
2022-12-04T00:13:53.974Z,-0.80
2022-12-04T00:16:23.710Z,-0.70
2022-12-04T00:18:52.094Z,-0.80
2022-12-04T00:21:20.189Z,-0.80
2022-12-04T00:23:48.332Z,-0.90
2022-12-04T00:26:20.834Z,-0.90
2022-12-04T00:28:49.338Z,-0.90
2022-12-04T00:31:21.729Z,-0.70
2022-12-04T00:33:51.599Z,-0.70
2022-12-04T00:36:24.581Z,-0.80
2022-12-04T00:38:53.702Z,-0.80
2022-12-04T00:41:25.533Z,-0.80
2022-12-04T00:43:55.989Z,-0.70
2022-12-04T00:46:23.960Z,-0.70
2022-12-04T00:51:38.832Z,-0.80
2022-12-04T00:54:19.511Z,-0.80
2022-12-04T00:56:48.895Z,-0.90
2022-12-04T00:59:19.439Z,-0.90
2022-12-04T01:01:57.982Z,-0.90
2022-12-04T01:04:28.235Z,-0.80
2022-12-04T01:07:05.206Z,-0.90
2022-12-04T01:09:33.879Z,-0.90
2022-12-04T01:12:08.952Z,-0.80
2022-12-04T01:14:39.498Z,-0.80
2022-12-04T01:17:12.225Z,-0.80
2022-12-04T01:19:46.330Z,-0.80
2022-12-04T01:22:17.296Z,-0.90
2022-12-04T01:24:51.369Z,-0.90
2022-12-04T01:27:22.239Z,-0.80
2022-12-04T01:29:56.683Z,-0.80
2022-12-04T01:32:26.260Z,-0.90
2022-12-04T01:34:55.372Z,-0.90
2022-12-04T01:37:27.089Z,-0.80
2022-12-04T01:40:01.538Z,-0.90
2022-12-04T01:42:30.179Z,-1.00
2022-12-04T01:45:34.731Z,-1.00
2022-12-04T01:48:16.777Z,-0.90
2022-12-04T01:53:43.595Z,-1.00
2022-12-04T01:56:16.987Z,-1.00
2022-12-04T01:58:53.682Z,-1.00
2022-12-04T02:01:24.958Z,-1.00
2022-12-04T02:03:54.631Z,-1.10
2022-12-04T02:06:24.268Z,-1.00
2022-12-04T02:08:54.020Z,-1.20
2022-12-04T02:11:50.548Z,-1.10
2022-12-04T02:14:36.223Z,-1.20
2022-12-04T02:17:36.077Z,-1.10
2022-12-04T02:20:34.394Z,-1.10
2022-12-04T02:23:05.002Z,-1.10
2022-12-04T02:25:42.294Z,-1.20
2022-12-04T02:28:23.477Z,-1.10
2022-12-04T02:30:54.279Z,-1.20
2022-12-04T02:33:27.470Z,-1.30
2022-12-04T02:36:11.323Z,-1.40
2022-12-04T02:38:46.099Z,-1.40
2022-12-04T02:41:26.108Z,-1.40
2022-12-04T02:43:59.188Z,-1.30
2022-12-04T02:46:26.668Z,-1.30
2022-12-04T02:48:55.384Z,-1.30
2022-12-04T02:51:23.658Z,-1.30
2022-12-04T02:53:58.067Z,-1.30
2022-12-04T02:56:29.022Z,-1.40
2022-12-04T02:59:01.458Z,-1.30
2022-12-04T03:01:37.817Z,-1.40
2022-12-04T03:04:23.768Z,-1.30
2022-12-04T03:07:00.782Z,-1.30
2022-12-04T03:09:39.215Z,-1.20
2022-12-04T03:12:50.059Z,-1.40
2022-12-04T03:15:39.940Z,-1.30
2022-12-04T03:18:13.594Z,-1.30
2022-12-04T03:20:42.516Z,-1.10
2022-12-04T03:23:19.937Z,-1.20
2022-12-04T03:25:55.577Z,-1.20
2022-12-04T03:28:36.273Z,-1.20
2022-12-04T03:31:08.239Z,-1.30
2022-12-04T03:33:46.988Z,-1.40
2022-12-04T03:36:22.782Z,-1.40
2022-12-04T03:39:01.806Z,-1.40
2022-12-04T03:41:34.400Z,-1.40
2022-12-04T03:44:11.667Z,-1.50
2022-12-04T03:46:56.526Z,-1.40
2022-12-04T03:52:51.725Z,-1.40
2022-12-04T03:55:38.753Z,-1.40
2022-12-04T03:58:09.650Z,-1.40
2022-12-04T04:00:40.346Z,-1.40
2022-12-04T04:03:21.361Z,-1.50
2022-12-04T04:05:51.250Z,-1.50
2022-12-04T04:08:29.053Z,-1.50
2022-12-04T04:11:02.920Z,-1.60
2022-12-04T04:13:54.611Z,-1.60
2022-12-04T04:16:41.642Z,-1.50
2022-12-04T04:19:27.654Z,-1.60
2022-12-04T04:25:27.084Z,-1.60
2022-12-04T04:27:58.534Z,-1.60
2022-12-04T04:30:26.732Z,-1.60
2022-12-04T04:35:45.433Z,-1.70
2022-12-04T04:38:22.007Z,-1.60
2022-12-04T04:44:46.537Z,-1.60
2022-12-04T04:47:20.018Z,-1.60
2022-12-04T04:49:48.484Z,-1.50
2022-12-04T04:52:18.524Z,-1.50
2022-12-04T04:54:48.352Z,-1.60
2022-12-04T04:57:31.588Z,-1.60
2022-12-04T05:00:03.650Z,-1.50
2022-12-04T05:02:33.408Z,-1.50
2022-12-04T05:05:04.917Z,-1.60
2022-12-04T05:07:36.450Z,-1.50
2022-12-04T05:10:05.863Z,-1.60
2022-12-04T05:12:37.498Z,-1.60
2022-12-04T05:15:07.450Z,-1.70
2022-12-04T05:17:37.792Z,-1.70
2022-12-04T05:20:07.269Z,-1.70
2022-12-04T05:22:36.468Z,-1.70
2022-12-04T05:25:04.483Z,-1.70
2022-12-04T05:27:33.126Z,-1.70
2022-12-04T05:30:01.590Z,-1.80
2022-12-04T05:32:32.929Z,-1.80
2022-12-04T05:35:05.113Z,-1.60
2022-12-04T05:37:40.798Z,-1.80
2022-12-04T05:40:09.128Z,-1.70
2022-12-04T05:42:40.273Z,-1.70
2022-12-04T05:45:09.343Z,-1.70
2022-12-04T05:47:43.440Z,-1.70
2022-12-04T05:50:14.680Z,-1.60
2022-12-04T05:52:47.005Z,-1.70
2022-12-04T05:55:15.567Z,-1.70
2022-12-04T05:57:47.159Z,-1.60
2022-12-04T06:00:16.905Z,-1.70
2022-12-04T06:02:50.167Z,-1.80
2022-12-04T06:05:19.907Z,-1.70
2022-12-04T06:07:57.916Z,-1.80
2022-12-04T06:10:30.692Z,-1.80
2022-12-04T06:15:39.795Z,-1.70
2022-12-04T06:18:06.627Z,-1.70
2022-12-04T06:20:33.358Z,-1.80
2022-12-04T06:23:00.035Z,-1.70
2022-12-04T06:25:26.704Z,-1.80
2022-12-04T06:27:53.302Z,-1.60
2022-12-04T06:30:19.983Z,-1.80
2022-12-04T06:32:46.605Z,-1.90
2022-12-04T06:35:13.191Z,-1.90
2022-12-04T06:37:39.795Z,-1.90
2022-12-04T06:40:07.056Z,-1.90
2022-12-04T06:42:33.670Z,-2.00
2022-12-04T06:45:00.276Z,-1.90
2022-12-04T06:47:26.876Z,-1.90
2022-12-04T06:49:53.596Z,-1.80
2022-12-04T06:52:20.405Z,-1.90
2022-12-04T06:54:47.029Z,-1.80
2022-12-04T06:57:13.728Z,-1.80
2022-12-04T06:59:40.371Z,-1.80
2022-12-04T07:02:07.010Z,-1.80
2022-12-04T07:04:33.628Z,-1.80
2022-12-04T07:07:00.265Z,-1.80
2022-12-04T07:09:26.869Z,-1.90
2022-12-04T07:11:54.898Z,-1.80
2022-12-04T07:14:21.538Z,-1.70
2022-12-04T07:16:48.173Z,-1.80
2022-12-04T07:19:14.917Z,-1.90
2022-12-04T07:21:41.656Z,-1.90
2022-12-04T07:24:08.443Z,-1.90
2022-12-04T07:26:35.089Z,-1.90
2022-12-04T07:29:01.706Z,-1.90
2022-12-04T07:31:28.956Z,-1.90
2022-12-04T07:33:56.091Z,-2.00
2022-12-04T07:36:23.113Z,-1.90
2022-12-04T07:38:50.069Z,-1.90
2022-12-04T07:41:17.332Z,-1.90
2022-12-04T07:43:43.965Z,-1.90
2022-12-04T07:46:15.423Z,-1.80
2022-12-04T07:48:42.202Z,-1.90
2022-12-04T07:51:14.178Z,-1.80
2022-12-04T07:53:40.863Z,-1.70
2022-12-04T07:56:08.211Z,-1.70
2022-12-04T07:58:34.925Z,-1.80
2022-12-04T08:01:15.307Z,-1.80
2022-12-04T08:03:47.591Z,-1.70
2022-12-04T08:06:15.049Z,-1.80
2022-12-04T08:08:41.727Z,-1.80
2022-12-04T08:11:09.872Z,-1.90
2022-12-04T08:13:36.497Z,-1.70
2022-12-04T08:16:04.165Z,-1.70
2022-12-04T08:18:30.828Z,-1.90
2022-12-04T08:21:07.585Z,-1.70
2022-12-04T08:23:34.733Z,-1.80
2022-12-04T08:26:01.513Z,-1.90
2022-12-04T08:28:28.345Z,-1.90
2022-12-04T08:30:55.005Z,-1.70
2022-12-04T08:33:21.778Z,-1.70
2022-12-04T08:35:48.473Z,-1.70
2022-12-04T08:38:15.101Z,-1.80
2022-12-04T08:40:41.755Z,-1.70
2022-12-04T08:43:08.402Z,-1.70
2022-12-04T08:45:34.979Z,-1.60
2022-12-04T08:48:02.123Z,-1.50
2022-12-04T08:50:28.716Z,-1.50
2022-12-04T08:52:55.316Z,-1.40
2022-12-04T08:55:21.908Z,-1.40
2022-12-04T08:57:50.327Z,-1.60
2022-12-04T09:00:17.179Z,-1.70
2022-12-04T09:02:43.781Z,-1.70
2022-12-04T09:05:10.461Z,-1.70
2022-12-04T09:07:37.125Z,-1.60
2022-12-04T09:10:03.892Z,-1.60
2022-12-04T09:12:30.506Z,-1.60
2022-12-04T09:14:57.096Z,-1.60
2022-12-04T09:17:23.714Z,-1.60
2022-12-04T09:19:50.337Z,-1.60
2022-12-04T09:22:16.935Z,-1.60
2022-12-04T09:24:43.602Z,-1.60
2022-12-04T09:27:14.702Z,-1.60
2022-12-04T09:29:41.641Z,-1.60
2022-12-04T09:32:08.268Z,-1.50
2022-12-04T09:34:35.049Z,-1.60
2022-12-04T09:37:01.718Z,-1.50
2022-12-04T09:39:28.355Z,-1.40
2022-12-04T09:42:33.298Z,-1.50
2022-12-04T09:45:10.708Z,-1.50
2022-12-04T09:47:44.545Z,-1.60
2022-12-04T09:50:25.833Z,-1.40
2022-12-04T09:52:56.188Z,-1.60
2022-12-04T09:55:32.308Z,-1.60
2022-12-04T09:58:02.111Z,-1.60
2022-12-04T10:00:29.580Z,-1.70
2022-12-04T10:03:05.572Z,-1.60
2022-12-04T10:05:36.422Z,-1.70
2022-12-04T10:08:14.382Z,-1.50
2022-12-04T10:10:59.982Z,-1.60
2022-12-04T10:13:47.671Z,-1.50
2022-12-04T10:16:36.064Z,-1.60
2022-12-04T10:19:15.416Z,-1.50
2022-12-04T10:22:00.221Z,-1.40
2022-12-04T10:24:47.118Z,-1.40
2022-12-04T10:27:28.167Z,-1.40
2022-12-04T10:29:57.452Z,-1.30
2022-12-04T10:32:26.867Z,-1.40
2022-12-04T10:34:55.313Z,-1.40
2022-12-04T10:37:22.004Z,-1.30
2022-12-04T10:40:21.555Z,-1.20
2022-12-04T10:42:56.084Z,-1.20
2022-12-04T10:45:22.797Z,-1.20
2022-12-04T10:47:49.689Z,-1.30
2022-12-04T10:50:22.042Z,-1.30
2022-12-04T10:52:48.724Z,-1.30
2022-12-04T10:55:15.573Z,-1.30
2022-12-04T10:57:43.867Z,-1.20
2022-12-04T11:00:23.885Z,-1.20
2022-12-04T11:02:51.493Z,-1.20
2022-12-04T11:05:43.378Z,-1.10
2022-12-04T11:08:21.216Z,-1.30
2022-12-04T11:10:56.380Z,-1.30
2022-12-04T11:13:23.504Z,-1.20
2022-12-04T11:15:52.918Z,-1.30
2022-12-04T11:18:21.692Z,-1.30
2022-12-04T11:20:59.442Z,-1.20
2022-12-04T11:23:26.789Z,-1.20
2022-12-04T11:25:54.772Z,-1.10
2022-12-04T11:28:42.661Z,-1.10
2022-12-04T11:31:10.555Z,-1.10
2022-12-04T11:33:48.215Z,-1.10
2022-12-04T11:36:27.182Z,-1.20
2022-12-04T11:38:54.724Z,-1.10
2022-12-04T11:41:26.773Z,-1.00
2022-12-04T11:43:59.350Z,-1.10
2022-12-04T11:46:31.210Z,-1.00
2022-12-04T11:48:57.966Z,-0.90
2022-12-04T11:51:53.563Z,-1.10
2022-12-04T11:54:29.188Z,-1.00
2022-12-04T11:57:11.740Z,-1.00
2022-12-04T11:59:41.409Z,-0.90
2022-12-04T12:02:45.681Z,-1.00
2022-12-04T12:05:22.674Z,-1.00
2022-12-04T12:08:02.567Z,-1.10
2022-12-04T12:10:52.765Z,-1.00
2022-12-04T12:13:28.500Z,-1.00
2022-12-04T12:16:04.107Z,-1.00
2022-12-04T12:18:55.847Z,-1.10
2022-12-04T12:21:25.744Z,-1.10
2022-12-04T12:24:23.853Z,-1.10
2022-12-04T12:27:09.321Z,-1.00
2022-12-04T12:29:38.151Z,-1.20
2022-12-04T12:32:32.933Z,-1.20
2022-12-04T12:34:59.688Z,-1.20
2022-12-04T12:37:30.986Z,-1.10
2022-12-04T12:40:05.025Z,-1.10
2022-12-04T12:42:40.210Z,-1.10
2022-12-04T12:45:28.445Z,-1.10
2022-12-04T12:47:56.363Z,-1.10
2022-12-04T12:50:25.987Z,-1.10
2022-12-04T12:53:00.097Z,-1.10
2022-12-04T12:55:36.044Z,-1.10
2022-12-04T12:58:15.211Z,-1.10
2022-12-04T13:00:56.557Z,-1.20
2022-12-04T13:03:37.624Z,-1.10
2022-12-04T13:06:06.709Z,-1.20
2022-12-04T13:08:49.333Z,-1.20
2022-12-04T13:11:21.724Z,-1.10
2022-12-04T13:13:59.345Z,-1.10
2022-12-04T13:16:33.330Z,-1.10
2022-12-04T13:19:24.752Z,-1.00
2022-12-04T13:22:09.304Z,-1.10
2022-12-04T13:25:04.724Z,-1.10
2022-12-04T13:28:05.463Z,-1.20
2022-12-04T13:30:48.963Z,-1.20
2022-12-04T13:33:37.521Z,-1.20
2022-12-04T13:36:08.641Z,-1.20
2022-12-04T13:38:41.369Z,-1.20
2022-12-04T13:41:10.463Z,-1.20
2022-12-04T13:43:43.249Z,-1.10
2022-12-04T13:46:39.725Z,-1.10
2022-12-04T13:49:18.986Z,-1.20
2022-12-04T13:51:46.097Z,-1.20
2022-12-04T13:54:12.678Z,-1.10
2022-12-04T13:56:40.381Z,-1.20
2022-12-04T13:59:21.264Z,-1.20
2022-12-04T14:01:49.891Z,-1.10
2022-12-04T14:04:46.065Z,-1.00
2022-12-04T14:07:32.899Z,-1.10
2022-12-04T14:10:04.077Z,-1.10
2022-12-04T14:12:42.166Z,-1.00
2022-12-04T14:15:28.231Z,-1.10
2022-12-04T14:18:11.250Z,-1.10
2022-12-04T14:20:38.128Z,-1.10
2022-12-04T14:23:26.238Z,-1.10
2022-12-04T14:25:57.729Z,-1.20
2022-12-04T14:28:41.695Z,-1.10
2022-12-04T14:31:08.991Z,-1.20
2022-12-04T14:33:39.365Z,-1.10
2022-12-04T14:36:18.902Z,-1.10
2022-12-04T14:38:47.011Z,-1.20
2022-12-04T14:41:13.613Z,-1.10
2022-12-04T14:43:41.361Z,-1.10
2022-12-04T14:46:15.627Z,-1.00
2022-12-04T14:49:06.428Z,-1.10
2022-12-04T14:51:35.869Z,-1.10
2022-12-04T14:54:09.370Z,-1.10
2022-12-04T14:56:41.837Z,-1.10
2022-12-04T14:59:22.518Z,-1.20
2022-12-04T15:01:49.649Z,-1.20
2022-12-04T15:04:22.534Z,-1.10
2022-12-04T15:06:49.569Z,-1.10
2022-12-04T15:09:39.596Z,-1.20
2022-12-04T15:12:34.465Z,-1.20
2022-12-04T15:15:25.390Z,-1.10
2022-12-04T15:17:59.468Z,-1.20
2022-12-04T15:20:26.958Z,-1.20
2022-12-04T15:22:57.260Z,-1.20
2022-12-04T15:25:28.710Z,-1.20
2022-12-04T15:28:11.949Z,-1.10
2022-12-04T15:30:38.558Z,-1.00
2022-12-04T15:33:05.287Z,-1.00
2022-12-04T15:35:32.901Z,-1.10
2022-12-04T15:37:59.483Z,-1.10
2022-12-04T15:40:27.486Z,-1.10
2022-12-04T15:42:54.407Z,-1.10
2022-12-04T15:45:22.336Z,-1.10
2022-12-04T15:47:53.506Z,-1.10
2022-12-04T15:50:21.750Z,-1.10
2022-12-04T15:52:50.049Z,-1.10
2022-12-04T15:55:19.817Z,-1.10
2022-12-04T15:57:54.472Z,-1.20
2022-12-04T16:00:29.062Z,-1.10
2022-12-04T16:02:55.760Z,-1.10
2022-12-04T16:05:22.319Z,-1.10
2022-12-04T16:07:59.435Z,-1.20
2022-12-04T16:10:31.362Z,-1.10
2022-12-04T16:13:00.697Z,-1.10
2022-12-04T16:15:38.479Z,-1.10
2022-12-04T16:18:05.944Z,-1.00
2022-12-04T16:20:34.559Z,-1.20
2022-12-04T16:23:01.149Z,-1.20
2022-12-04T16:25:31.439Z,-1.20
2022-12-04T16:27:58.949Z,-1.20
2022-12-04T16:30:26.175Z,-1.20
2022-12-04T16:32:52.995Z,-1.20
2022-12-04T16:35:19.861Z,-1.10
2022-12-04T16:37:46.487Z,-1.10
2022-12-04T16:40:13.527Z,-1.20
2022-12-04T16:42:40.357Z,-1.20
2022-12-04T16:45:31.747Z,-1.10
2022-12-04T16:47:58.415Z,-1.10
2022-12-04T16:50:25.809Z,-1.00
2022-12-04T16:52:52.522Z,-1.00
2022-12-04T16:55:21.533Z,-1.10
2022-12-04T16:57:48.166Z,-1.20
2022-12-04T17:00:15.832Z,-1.20
2022-12-04T17:02:42.525Z,-1.10
2022-12-04T17:05:17.977Z,-1.20
2022-12-04T17:07:44.660Z,-1.20
2022-12-04T17:10:12.727Z,-1.20
2022-12-04T17:12:40.165Z,-1.10
2022-12-04T17:15:07.435Z,-1.20
2022-12-04T17:17:34.124Z,-1.20
2022-12-04T17:20:00.798Z,-1.20
2022-12-04T17:22:27.424Z,-1.20
2022-12-04T17:24:56.258Z,-1.20
2022-12-04T17:27:23.441Z,-1.20
2022-12-04T17:29:50.084Z,-1.20
2022-12-04T17:32:16.756Z,-1.20
2022-12-04T17:34:43.377Z,-1.20
2022-12-04T17:37:09.984Z,-1.20
2022-12-04T17:39:36.704Z,-1.20
2022-12-04T17:42:03.420Z,-1.30
2022-12-04T17:44:30.032Z,-1.20
2022-12-04T17:46:56.707Z,-1.20
2022-12-04T17:49:23.324Z,-1.20
2022-12-04T17:51:49.930Z,-1.20
2022-12-04T17:54:16.525Z,-1.20
2022-12-04T17:56:48.122Z,-1.20
2022-12-04T17:59:16.250Z,-1.30
2022-12-04T18:01:42.878Z,-1.20
2022-12-04T18:04:09.472Z,-1.20
2022-12-04T18:06:40.554Z,-1.20
2022-12-04T18:09:08.126Z,-1.20
2022-12-04T18:11:35.817Z,-1.20
2022-12-04T18:14:11.656Z,-1.20
2022-12-04T18:16:41.067Z,-1.20
2022-12-04T18:19:07.665Z,-1.20
2022-12-04T18:21:34.438Z,-1.20
2022-12-04T18:24:02.802Z,-1.20
2022-12-04T18:26:33.798Z,-1.20
2022-12-04T18:29:00.430Z,-1.20
2022-12-04T18:31:27.086Z,-1.20
2022-12-04T18:33:53.698Z,-1.20
2022-12-04T18:36:22.199Z,-1.20
2022-12-04T18:38:53.731Z,-1.20
2022-12-04T18:41:20.377Z,-1.20
2022-12-04T18:43:46.993Z,-1.20
2022-12-04T18:46:14.807Z,-1.10
2022-12-04T18:48:41.702Z,-1.10
2022-12-04T18:51:21.537Z,-1.00
2022-12-04T18:53:48.276Z,-1.10
2022-12-04T18:56:14.960Z,-1.10
2022-12-04T18:58:41.675Z,-1.10
2022-12-04T19:01:13.887Z,-1.10
2022-12-04T19:03:40.936Z,-1.10
2022-12-04T19:06:07.925Z,-1.10
2022-12-04T19:08:37.622Z,-1.20
2022-12-04T19:11:08.099Z,-1.10
2022-12-04T19:13:34.849Z,-1.10
2022-12-04T19:16:01.815Z,-1.10
2022-12-04T19:18:29.711Z,-1.10
2022-12-04T19:20:56.617Z,-1.10
2022-12-04T19:23:23.379Z,-1.10
2022-12-04T19:25:56.924Z,-1.10
2022-12-04T19:28:23.566Z,-1.10
2022-12-04T19:30:50.178Z,-1.10
2022-12-04T19:33:16.835Z,-1.10
2022-12-04T19:35:43.537Z,-1.10
2022-12-04T19:38:10.132Z,-1.10
2022-12-04T19:40:36.721Z,-1.10
2022-12-04T19:43:03.387Z,-1.10
2022-12-04T19:45:30.100Z,-1.00
2022-12-04T19:47:56.745Z,-1.10
2022-12-04T19:50:23.319Z,-1.10
2022-12-04T19:52:49.937Z,-1.10
2022-12-04T19:55:16.593Z,-1.10
2022-12-04T19:57:43.178Z,-1.10
2022-12-04T20:00:10.163Z,-1.10
2022-12-04T20:02:36.859Z,-1.10
2022-12-04T20:05:03.640Z,-1.10
2022-12-04T20:07:30.285Z,-1.10
2022-12-04T20:09:57.108Z,-1.10
2022-12-04T20:12:24.423Z,-1.00
2022-12-04T20:14:51.046Z,-1.00
2022-12-04T20:17:17.653Z,-1.00
2022-12-04T20:19:44.244Z,-1.00
2022-12-04T20:22:10.841Z,-1.00
2022-12-04T20:24:37.499Z,-1.00
2022-12-04T20:27:04.235Z,-1.10
2022-12-04T20:29:30.808Z,-1.00
2022-12-04T20:31:57.418Z,-1.00
2022-12-04T20:34:24.015Z,-1.00
2022-12-04T20:36:50.663Z,-1.00
2022-12-04T20:39:18.482Z,-1.00
2022-12-04T20:41:45.379Z,-0.90
2022-12-04T20:44:16.541Z,-0.90
2022-12-04T20:46:43.217Z,-0.80
2022-12-04T20:49:20.642Z,-0.90
2022-12-04T20:51:48.362Z,-0.90
2022-12-04T20:54:18.097Z,-0.80
2022-12-04T20:56:44.820Z,-0.90
2022-12-04T20:59:12.955Z,-0.80
2022-12-04T21:01:39.813Z,-0.80
2022-12-04T21:04:06.685Z,-0.70
2022-12-04T21:06:38.446Z,-0.70
2022-12-04T21:09:06.596Z,-0.70
2022-12-04T21:11:41.488Z,-0.70
2022-12-04T21:14:29.968Z,-0.70
2022-12-04T21:16:56.725Z,-0.60
2022-12-04T21:19:23.423Z,-0.60
2022-12-04T21:21:50.272Z,-0.70
2022-12-04T21:24:18.191Z,-0.60
2022-12-04T21:26:44.860Z,-0.60
2022-12-04T21:29:11.522Z,-0.50
2022-12-04T21:31:38.383Z,-0.50
2022-12-04T21:34:06.619Z,-0.50
2022-12-04T21:36:33.269Z,-0.40
2022-12-04T21:39:00.101Z,-0.40
2022-12-04T21:41:45.606Z,-0.40
2022-12-04T21:44:16.901Z,-0.40
2022-12-04T21:46:44.286Z,-0.40
2022-12-04T21:49:10.959Z,-0.40
2022-12-04T21:51:56.832Z,-0.40
2022-12-04T21:54:24.357Z,-0.50
2022-12-04T21:56:50.978Z,-0.40
2022-12-04T21:59:17.595Z,-0.40
2022-12-04T22:01:44.247Z,-0.40
2022-12-04T22:04:10.972Z,-0.40
2022-12-04T22:06:37.867Z,-0.40
2022-12-04T22:09:06.979Z,-0.40
2022-12-04T22:11:33.676Z,-0.40
2022-12-04T22:14:00.297Z,-0.40
2022-12-04T22:16:30.519Z,-0.40
2022-12-04T22:18:58.440Z,-0.40
2022-12-04T22:21:25.381Z,-0.30
2022-12-04T22:23:56.510Z,-0.40
2022-12-04T22:26:23.459Z,-0.40
2022-12-04T22:28:50.072Z,-0.40
2022-12-04T22:31:18.569Z,-0.40
2022-12-04T22:33:49.500Z,-0.40
2022-12-04T22:36:18.480Z,-0.40
2022-12-04T22:39:05.961Z,-0.40
2022-12-04T22:41:31.769Z,-0.40
2022-12-04T22:43:58.381Z,-0.30
2022-12-04T22:46:25.050Z,-0.30
2022-12-04T22:48:51.739Z,-0.30
2022-12-04T22:51:19.962Z,-0.40
2022-12-04T22:53:48.165Z,-0.30
2022-12-04T22:56:16.811Z,-0.30
2022-12-04T22:58:44.190Z,-0.30
2022-12-04T23:01:18.940Z,-0.30
2022-12-04T23:03:46.158Z,-0.30
2022-12-04T23:06:12.909Z,-0.20
2022-12-04T23:08:40.061Z,-0.30
2022-12-04T23:11:08.710Z,-0.30
2022-12-04T23:13:35.710Z,-0.30
2022-12-04T23:16:06.343Z,-0.30
2022-12-04T23:18:36.056Z,-0.30
2022-12-04T23:21:10.470Z,-0.20
2022-12-04T23:23:38.171Z,-0.30
2022-12-04T23:26:06.271Z,-0.30
2022-12-04T23:28:33.170Z,-0.30
2022-12-04T23:31:00.014Z,-0.30
2022-12-04T23:33:26.750Z,-0.20
2022-12-04T23:35:54.240Z,-0.20
2022-12-04T23:38:21.412Z,-0.20
2022-12-04T23:40:48.270Z,-0.20
2022-12-04T23:43:15.739Z,-0.20
2022-12-04T23:45:42.967Z,-0.20
2022-12-04T23:48:09.712Z,-0.20
2022-12-04T23:50:36.325Z,-0.20
2022-12-04T23:53:02.933Z,-0.20
2022-12-04T23:55:34.034Z,-0.20
2022-12-04T23:58:02.042Z,-0.20
